Almond, NY

4:44 PM EDT on March 28, 2017 (GMT -0400)
Ardachy Farm | | Change Station

Elev 1877 ft 42.28 °N, 77.77 °W | Updated 22 seconds ago

Overcast
Overcast
45.3 °F
Feels Like 42 °F
N
5.4
Wind Variable Wind from North
Gusts 7.6 mph

Today
High -- | Low -- °F
--% Chance of Precip.
Yesterday
High -- | Low -- °F
Precip. -- in
Pressure 29.99 in
Visibility 10.0 miles
Clouds Overcast 1200 ft
Windchill 42 °F
Dew Point 45 °F
Humidity 99%
Rainfall 0.05 in
Snow Depth Not available.
6:59 AM 7:32 PM
New Moon, 1% visible
METAR KDSV 281954Z AUTO 32013KT 10SM OVC012 09/06 A2996 RMK AO2 SLP156 T00890061
Pressure 29.99 in
Visibility 10.0 miles
Clouds Overcast 1200 ft
Windchill 42 °F
Dew Point 45 °F
Humidity 99%
Rainfall 0.05 in
Snow Depth Not available.
6:59 AM 7:32 PM
New Moon, 1% visible
METAR KDSV 281954Z AUTO 32013KT 10SM OVC012 09/06 A2996 RMK AO2 SLP156 T00890061

Get Severe Weather Alerts

Thanks for signing up!

Be on the lookout for a verification email in your inbox.

You'll start receiving the daily forecast at 8 AM.

×

10-Day Weather Forecast

Almanac

Astronomy

Mar. 28, 2017 Rise Set
Actual Time
Civil Twilight
Nautical Twilight
Astronomical Twilight
Moon
Length of Visible Light
Length of Day
Tomorrow will be .
, % of the Moon is Illuminated

Today's Extremes

State Highs State Lows

Community

WunderPhotos

Upload Photos

1,962,540 photos uploaded!

WunderBlog® & News

Nearby

Air Quality

  Air Quality AQ Index Pollutant
Not available.

Snow Depth

Station Depth Elevation

Earthquake Activity

City Distance Mag. Time & Date
Minimum magnitude displayed is 2.5.

Earthquake Activity

City Distance Mag. Time & Date
Minimum magnitude displayed is 2.5.

Coastal Water Temperatures

Place Temperature

Stations

Nearby Weather Stations

Station Location Temp. Windchill Dew Point Humidity Wind Precip. Elev Updated Type
                   

Watches & Warnings

There are currently no watches in effect.